АЭРОДРОМУУД

ICAO:
ZMCK
Нэр:
УЛААНБААТАР / ЧИНГИС ХААН
Ахц:
473849N 1064912E
030727 ZMUBYNYX
(A0005/22 NOTAMN
Q) ZMUB/QFAXX/IV/NBO/A /000/999/4738N10649E005
A) ZMCK B) 2201030727 C) PERM
E) VALIDITY OF AD CERTIFICATE EXTENDED TO 31 MAR 2022 REF AIP MONGOLIA AD 1.5)
- 3 weeks ago -
METAR
No records found.
TAF
TAF ZMCK 271630Z 2718/2824 VRB02MPS 9999 SCT100 TNM30/2723Z TXM13/2807Z=
- 25 minutes ago -
TAF ZMCK 271630Z 2718/2824 VRB02MPS 9999 SCT100 TNM30/2723Z TXM13/2807Z=
- 25 minutes ago -
TAF ZMCK 271050Z 2712/2721 VRB02MPS 9999 SCT100=
- 6 hours ago -
TAF ZMCK 271050Z 2712/2721 VRB02MPS 9999 SCT100=
- 6 hours ago -
TAF ZMCK 271040Z 2712/2818 VRB02MPS 9999 SCT100 TNM29/2723Z TXM13/2807Z=
- 6 hours ago -
TAF ZMCK 271040Z 2712/2818 VRB02MPS 9999 SCT100 TNM29/2723Z TXM13/2807Z=
- 6 hours ago -
TAF ZMCK 270750Z 2709/2718 VRB02MPS 9999 SCT100=
- 9 hours ago -
TAF ZMCK 270750Z 2709/2718 VRB02MPS 9999 SCT100=
- 9 hours ago -
TAF ZMCK 270437Z 2706/2812 VRB02MPS 9999 SCT100 TXM15/2707Z TNM29/2723Z=
- 12 hours ago -
TAF ZMCK 270437Z 2706/2812 VRB02MPS 9999 SCT100 TXM15/2707Z TNM29/2723Z=
- 12 hours ago -
TAF ZMCK 262230Z 2700/2806 VRB02MPS 9999 SCT100 TXM15/2707Z TNM29/2723Z=
- 18 hours ago -
TAF ZMCK 262230Z 2700/2806 VRB02MPS 9999 SCT100 TXM15/2707Z TNM29/2723Z=
- 18 hours ago -
TAF ZMCK 261630Z 2618/2724 VRB02MPS 9999 SCT100 TNM31/2623Z TXM16/2707Z=
- 1 day ago -
TAF ZMCK 261630Z 2618/2724 VRB02MPS 9999 SCT100 TNM31/2623Z TXM16/2707Z=
- 1 day ago -
TAF ZMCK 261030Z 2612/2718 VRB02MPS 9999 SCT100 TNM30/2623Z TXM16/2707Z=
- 1 day ago -
TAF ZMCK 261030Z 2612/2718 VRB02MPS 9999 SCT100 TNM30/2623Z TXM16/2707Z=
- 1 day ago -